createdAt,value
2023-01-02T00:00:59.495Z,8.03
2023-01-02T00:03:26.507Z,6.33
2023-01-02T00:05:54.541Z,7.70
2023-01-02T00:08:21.188Z,9.73
2023-01-02T00:10:47.891Z,7.47
2023-01-02T00:13:14.894Z,8.20
2023-01-02T00:15:41.533Z,11.57
2023-01-02T00:18:08.284Z,17.43
2023-01-02T00:20:34.967Z,12.73
2023-01-02T00:23:01.614Z,9.47
2023-01-02T00:25:28.367Z,7.83
2023-01-02T00:27:56.185Z,11.20
2023-01-02T00:30:23.005Z,10.67
2023-01-02T00:32:49.637Z,10.13
2023-01-02T00:35:16.388Z,10.63
2023-01-02T00:37:42.996Z,11.33
2023-01-02T00:40:13.945Z,8.93
2023-01-02T00:42:41.464Z,7.33
2023-01-02T00:45:09.910Z,5.70
2023-01-02T00:47:37.147Z,9.27
2023-01-02T00:50:04.750Z,9.43
2023-01-02T00:52:31.578Z,9.93
2023-01-02T00:54:58.206Z,7.37
2023-01-02T00:57:24.872Z,7.60
2023-01-02T00:59:51.475Z,9.80
2023-01-02T01:02:18.232Z,9.13
2023-01-02T01:04:44.993Z,12.13
2023-01-02T01:07:11.608Z,6.13
2023-01-02T01:09:38.211Z,6.53
2023-01-02T01:12:05.356Z,7.63
2023-01-02T01:14:32.254Z,7.77
2023-01-02T01:16:59.856Z,12.90
2023-01-02T01:19:34.208Z,9.07
2023-01-02T01:22:00.867Z,9.63
2023-01-02T01:24:27.946Z,11.33
2023-01-02T01:26:54.619Z,6.27
2023-01-02T01:29:21.376Z,5.90
2023-01-02T01:31:48.049Z,7.67
2023-01-02T01:34:14.833Z,7.10
2023-01-02T01:36:41.568Z,7.13
2023-01-02T01:39:08.262Z,8.27
2023-01-02T01:41:34.986Z,8.47
2023-01-02T01:44:01.739Z,9.63
2023-01-02T01:46:46.454Z,5.10
2023-01-02T01:49:27.648Z,7.73
2023-01-02T01:52:03.636Z,8.80
2023-01-02T01:54:35.199Z,10.27
2023-01-02T01:57:12.347Z,5.30
2023-01-02T01:59:39.568Z,7.53
2023-01-02T02:02:06.952Z,11.53
2023-01-02T02:04:34.295Z,7.17
2023-01-02T02:07:01.812Z,6.37
2023-01-02T02:09:35.596Z,7.53
2023-01-02T02:12:04.465Z,4.00
2023-01-02T02:14:31.139Z,5.77
2023-01-02T02:17:36.417Z,7.60
2023-01-02T02:20:27.180Z,6.53
2023-01-02T02:23:18.975Z,9.10
2023-01-02T02:25:59.947Z,7.47
2023-01-02T02:29:04.528Z,11.83
2023-01-02T02:31:59.485Z,5.77
2023-01-02T02:34:40.213Z,7.33
2023-01-02T02:37:34.022Z,5.73
2023-01-02T02:40:10.050Z,7.90
2023-01-02T02:42:52.666Z,8.03
2023-01-02T02:45:38.281Z,6.40
2023-01-02T02:48:13.805Z,8.83
2023-01-02T02:51:00.925Z,10.43
2023-01-02T02:53:35.968Z,10.67
2023-01-02T02:56:07.944Z,6.63
2023-01-02T02:58:36.278Z,7.17
2023-01-02T03:01:06.002Z,6.17
2023-01-02T03:03:33.254Z,6.20
2023-01-02T03:06:18.149Z,5.17
2023-01-02T03:09:22.566Z,8.53
2023-01-02T03:12:10.363Z,8.40
2023-01-02T03:14:51.474Z,11.43
2023-01-02T03:17:22.998Z,9.17
2023-01-02T03:19:57.450Z,8.93
2023-01-02T03:22:31.592Z,9.57
2023-01-02T03:24:59.219Z,5.93
2023-01-02T03:27:30.104Z,5.57
2023-01-02T03:30:10.977Z,6.47
2023-01-02T03:32:43.673Z,5.27
2023-01-02T03:35:19.691Z,7.77
2023-01-02T03:37:51.414Z,9.73
2023-01-02T03:40:24.991Z,5.33
2023-01-02T03:43:21.450Z,5.50
2023-01-02T03:46:01.663Z,5.70
2023-01-02T03:48:34.888Z,5.90
2023-01-02T03:51:03.745Z,7.70
2023-01-02T03:53:33.760Z,6.47
2023-01-02T03:56:11.202Z,5.53
2023-01-02T03:58:43.783Z,7.97
2023-01-02T04:01:20.677Z,5.60
2023-01-02T04:03:52.872Z,9.03
2023-01-02T04:06:24.949Z,5.20
2023-01-02T04:09:00.394Z,9.30
2023-01-02T04:11:30.459Z,6.27
2023-01-02T04:14:03.254Z,7.03
2023-01-02T04:16:34.546Z,8.37
2023-01-02T04:19:21.473Z,5.37
2023-01-02T04:21:50.002Z,4.63
2023-01-02T04:24:27.099Z,5.97
2023-01-02T04:27:09.772Z,7.20
2023-01-02T04:29:36.467Z,4.57
2023-01-02T04:32:30.923Z,4.87
2023-01-02T04:34:59.224Z,5.83
2023-01-02T04:37:31.683Z,9.43
2023-01-02T04:40:04.077Z,5.00
2023-01-02T04:42:35.651Z,5.60
2023-01-02T04:45:03.260Z,5.50
2023-01-02T04:47:30.151Z,6.20
2023-01-02T04:49:56.798Z,5.23
2023-01-02T04:52:23.462Z,4.43
2023-01-02T04:54:50.140Z,4.73
2023-01-02T04:57:16.839Z,5.87
2023-01-02T04:59:43.470Z,6.20
2023-01-02T05:02:10.247Z,7.57
2023-01-02T05:04:37.095Z,6.37
2023-01-02T05:07:04.506Z,6.63
2023-01-02T05:09:31.134Z,8.17
2023-01-02T05:11:57.864Z,5.70
2023-01-02T05:14:24.562Z,8.67
2023-01-02T05:16:51.241Z,7.07
2023-01-02T05:19:17.919Z,7.33
2023-01-02T05:22:03.406Z,7.50
2023-01-02T05:24:30.073Z,8.43
2023-01-02T05:26:56.697Z,9.93
2023-01-02T05:29:23.537Z,9.60
2023-01-02T05:31:50.686Z,8.97
2023-01-02T05:34:17.541Z,9.43
2023-01-02T05:36:44.383Z,4.57
2023-01-02T05:39:12.510Z,4.90
2023-01-02T05:41:40.069Z,3.50
2023-01-02T05:44:08.674Z,4.73
2023-01-02T05:46:36.495Z,5.57
2023-01-02T05:49:10.666Z,5.63
2023-01-02T05:51:37.560Z,4.53
2023-01-02T05:54:05.059Z,4.83
2023-01-02T05:56:32.089Z,5.03
2023-01-02T05:58:58.705Z,6.23
2023-01-02T06:01:28.006Z,6.27
2023-01-02T06:03:57.960Z,6.57
2023-01-02T06:06:29.521Z,5.60
2023-01-02T06:08:56.326Z,8.90
2023-01-02T06:11:22.953Z,6.60
2023-01-02T06:13:49.548Z,8.97
2023-01-02T06:16:16.320Z,7.17
2023-01-02T06:18:43.038Z,5.10
2023-01-02T06:21:15.398Z,5.30
2023-01-02T06:23:42.868Z,6.57
2023-01-02T06:26:13.800Z,11.73
2023-01-02T06:28:40.846Z,4.93
2023-01-02T06:31:18.863Z,7.00
2023-01-02T06:33:46.019Z,6.50
2023-01-02T06:36:18.315Z,9.90
2023-01-02T06:38:45.800Z,6.00
2023-01-02T06:41:12.903Z,5.27
2023-01-02T06:43:45.824Z,7.43
2023-01-02T06:46:19.522Z,7.47
2023-01-02T06:48:46.981Z,6.50
2023-01-02T06:51:16.524Z,8.80
2023-01-02T06:53:44.467Z,8.63
2023-01-02T06:56:12.540Z,8.10
2023-01-02T06:58:39.720Z,7.63
2023-01-02T07:01:09.139Z,8.20
2023-01-02T07:03:36.556Z,5.10
2023-01-02T07:06:10.552Z,7.83
2023-01-02T07:08:37.565Z,4.33
2023-01-02T07:11:19.207Z,4.80
2023-01-02T07:13:47.843Z,6.57
2023-01-02T07:16:16.260Z,6.03
2023-01-02T07:18:43.516Z,7.60
2023-01-02T07:21:12.049Z,7.73
2023-01-02T07:23:38.824Z,6.53
2023-01-02T07:26:06.955Z,8.00
2023-01-02T07:28:34.868Z,6.53
2023-01-02T07:31:05.554Z,7.77
2023-01-02T07:33:33.268Z,4.67
2023-01-02T07:36:04.993Z,6.47
2023-01-02T07:38:31.825Z,6.90
2023-01-02T07:40:58.607Z,15.00
2023-01-02T07:43:25.689Z,6.77
2023-01-02T07:45:52.428Z,5.27
2023-01-02T07:48:19.195Z,4.70
2023-01-02T07:50:46.415Z,7.80
2023-01-02T07:53:13.131Z,8.27
2023-01-02T07:55:39.919Z,4.97
2023-01-02T07:58:07.173Z,8.63
2023-01-02T08:00:33.803Z,11.00
2023-01-02T08:03:00.987Z,12.17
2023-01-02T08:05:27.843Z,8.87
2023-01-02T08:07:54.484Z,9.93
2023-01-02T08:10:21.169Z,7.83
2023-01-02T08:12:47.812Z,4.67
2023-01-02T08:15:14.568Z,11.90
2023-01-02T08:17:41.549Z,6.27
2023-01-02T08:20:09.364Z,6.13
2023-01-02T08:22:36.242Z,15.37
2023-01-02T08:25:03.856Z,10.67
2023-01-02T08:27:30.704Z,12.87
2023-01-02T08:29:57.385Z,4.20
2023-01-02T08:32:24.126Z,14.50
2023-01-02T08:34:50.820Z,5.93
2023-01-02T08:37:17.667Z,9.30
2023-01-02T08:39:44.309Z,7.53
2023-01-02T08:42:11.175Z,5.27
2023-01-02T08:44:38.241Z,7.53
2023-01-02T08:47:05.685Z,6.47
2023-01-02T08:49:32.474Z,10.83
2023-01-02T08:51:59.219Z,7.03
2023-01-02T08:54:26.261Z,7.57
2023-01-02T08:56:53.160Z,10.33
2023-01-02T08:59:20.039Z,7.77
2023-01-02T09:01:46.887Z,9.27
2023-01-02T09:04:13.930Z,10.20
2023-01-02T09:06:42.011Z,12.67
2023-01-02T09:09:12.557Z,10.63
2023-01-02T09:11:44.788Z,10.40
2023-01-02T09:14:11.506Z,9.13
2023-01-02T09:16:38.190Z,9.30
2023-01-02T09:19:05.090Z,10.73
2023-01-02T09:21:32.084Z,11.57
2023-01-02T09:23:59.377Z,9.93
2023-01-02T09:26:26.459Z,13.53
2023-01-02T09:28:53.589Z,9.60
2023-01-02T09:31:20.723Z,9.30
2023-01-02T09:33:48.188Z,9.40
2023-01-02T09:36:24.582Z,9.17
2023-01-02T09:38:53.218Z,10.37
2023-01-02T09:41:25.269Z,9.07
2023-01-02T09:44:33.438Z,8.47
2023-01-02T09:47:11.064Z,9.90
2023-01-02T09:49:45.484Z,12.90
2023-01-02T09:52:18.567Z,10.30
2023-01-02T09:54:45.210Z,15.90
2023-01-02T09:57:32.231Z,18.93
2023-01-02T10:00:04.823Z,22.67
2023-01-02T10:02:45.198Z,25.27
2023-01-02T10:05:38.413Z,17.70
2023-01-02T10:08:31.422Z,15.43
2023-01-02T10:11:09.799Z,17.93
2023-01-02T10:16:49.741Z,25.73
2023-01-02T10:19:40.803Z,13.80
2023-01-02T10:22:12.718Z,13.23
2023-01-02T10:24:45.859Z,9.67
2023-01-02T10:27:18.399Z,16.53
2023-01-02T10:30:02.973Z,9.40
2023-01-02T10:32:32.771Z,13.53
2023-01-02T10:35:14.706Z,11.47
2023-01-02T10:37:41.396Z,7.53
2023-01-02T10:40:08.566Z,8.80
2023-01-02T10:42:35.199Z,8.50
2023-01-02T10:45:02.833Z,9.47
2023-01-02T10:47:37.647Z,12.40
2023-01-02T10:50:14.992Z,12.67
2023-01-02T10:52:52.971Z,7.73
2023-01-02T10:55:36.887Z,8.87
2023-01-02T10:58:06.238Z,8.50
2023-01-02T11:00:35.556Z,7.53
2023-01-02T11:03:23.698Z,6.90
2023-01-02T11:05:53.553Z,8.50
2023-01-02T11:08:34.192Z,7.63
2023-01-02T11:11:03.463Z,10.57
2023-01-02T11:13:48.959Z,8.23
2023-01-02T11:16:21.339Z,7.23
2023-01-02T11:18:56.545Z,5.67
2023-01-02T11:21:29.953Z,6.60
2023-01-02T11:24:05.558Z,8.37
2023-01-02T11:26:34.355Z,7.40
2023-01-02T11:29:09.280Z,7.17
2023-01-02T11:31:43.365Z,7.73
2023-01-02T11:34:19.340Z,10.20
2023-01-02T11:37:00.288Z,7.67
2023-01-02T11:39:26.908Z,8.80
2023-01-02T11:42:27.302Z,5.97
2023-01-02T11:45:06.271Z,7.87
2023-01-02T11:47:38.055Z,14.43
2023-01-02T11:50:05.225Z,16.70
2023-01-02T11:53:00.022Z,18.70
2023-01-02T11:55:35.692Z,8.97
2023-01-02T11:58:37.553Z,17.93
2023-01-02T12:01:17.282Z,16.97
2023-01-02T12:03:44.390Z,11.40
2023-01-02T12:06:23.902Z,12.53
2023-01-02T12:08:56.693Z,13.23
2023-01-02T12:11:45.180Z,10.43
2023-01-02T12:14:18.324Z,14.27
2023-01-02T12:17:14.507Z,16.00
2023-01-02T12:19:49.536Z,13.03
2023-01-02T12:22:25.015Z,9.40
2023-01-02T12:25:08.384Z,10.10
2023-01-02T12:27:58.407Z,5.50
2023-01-02T12:30:25.304Z,8.10
2023-01-02T12:33:17.651Z,6.33
2023-01-02T12:36:05.583Z,6.10
2023-01-02T12:39:37.176Z,5.37
2023-01-02T12:42:16.056Z,6.93
2023-01-02T12:44:55.076Z,12.80
2023-01-02T12:47:48.884Z,7.07
2023-01-02T12:50:27.071Z,6.93
2023-01-02T12:53:13.767Z,5.63
2023-01-02T12:55:49.439Z,6.57
2023-01-02T12:58:48.356Z,11.20
2023-01-02T13:01:53.611Z,13.53
2023-01-02T13:04:23.622Z,9.27
2023-01-02T13:06:56.369Z,5.70
2023-01-02T13:09:37.793Z,4.27
2023-01-02T13:12:10.160Z,5.60
2023-01-02T13:14:49.060Z,8.70
2023-01-02T13:17:38.557Z,7.77
2023-01-02T13:20:12.833Z,7.10
2023-01-02T13:22:47.753Z,16.13
2023-01-02T13:25:20.362Z,16.90
2023-01-02T13:27:48.779Z,14.87
2023-01-02T13:30:33.477Z,11.23
2023-01-02T13:33:02.687Z,17.47
2023-01-02T13:35:35.097Z,17.23
2023-01-02T13:38:05.922Z,19.50
2023-01-02T13:40:33.693Z,10.20
2023-01-02T13:43:08.295Z,9.53
2023-01-02T13:45:55.152Z,8.57
2023-01-02T13:48:46.090Z,9.77
2023-01-02T13:51:16.606Z,7.33
2023-01-02T13:53:46.209Z,6.70
2023-01-02T13:56:21.832Z,6.80
2023-01-02T13:58:57.602Z,10.47
2023-01-02T14:01:24.620Z,8.83
2023-01-02T14:04:09.643Z,7.53
2023-01-02T14:06:48.581Z,9.40
2023-01-02T14:09:23.647Z,9.07
2023-01-02T14:11:57.039Z,9.30
2023-01-02T14:14:37.082Z,6.70
2023-01-02T14:17:22.409Z,7.00
2023-01-02T14:20:15.370Z,7.53
2023-01-02T14:22:47.980Z,7.00
2023-01-02T14:25:15.945Z,9.00
2023-01-02T14:27:59.339Z,4.73
2023-01-02T14:30:41.041Z,11.20
2023-01-02T14:33:10.128Z,8.67
2023-01-02T14:35:48.970Z,5.60
2023-01-02T14:38:22.725Z,5.40
2023-01-02T14:40:50.301Z,7.07
2023-01-02T14:43:30.692Z,4.37
2023-01-02T14:46:18.882Z,5.33
2023-01-02T14:49:24.803Z,5.83
2023-01-02T14:52:02.384Z,8.93
2023-01-02T14:54:47.959Z,8.10
2023-01-02T14:57:34.697Z,9.73
2023-01-02T15:00:11.729Z,7.40
2023-01-02T15:02:47.601Z,13.77
2023-01-02T15:05:26.564Z,7.93
2023-01-02T15:07:58.870Z,12.00
2023-01-02T15:10:26.339Z,12.83
2023-01-02T15:13:07.053Z,14.23
2023-01-02T15:15:42.738Z,9.53
2023-01-02T15:18:20.473Z,9.17
2023-01-02T15:20:53.112Z,6.80
2023-01-02T15:23:27.272Z,7.20
2023-01-02T15:26:33.218Z,5.37
2023-01-02T15:28:41.727Z,5.23
2023-01-02T15:31:14.266Z,8.90
2023-01-02T15:33:41.550Z,7.30
2023-01-02T15:36:13.439Z,7.07
2023-01-02T15:38:41.056Z,7.90
2023-01-02T15:41:15.482Z,9.37
2023-01-02T15:44:00.830Z,7.27
2023-01-02T15:46:28.108Z,7.70
2023-01-02T15:48:55.485Z,7.17
2023-01-02T15:51:40.404Z,5.67
2023-01-02T15:54:15.561Z,8.90
2023-01-02T15:56:42.800Z,11.43
2023-01-02T15:59:30.484Z,16.07
2023-01-02T16:01:57.312Z,14.63
2023-01-02T16:04:33.134Z,12.17
2023-01-02T16:07:20.925Z,3.33
2023-01-02T16:09:54.261Z,5.47
2023-01-02T16:12:22.829Z,3.87
2023-01-02T16:14:55.470Z,6.80
2023-01-02T16:17:36.763Z,5.20
2023-01-02T16:20:17.847Z,4.87
2023-01-02T16:22:53.230Z,11.33
2023-01-02T16:25:24.098Z,7.50
2023-01-02T16:28:35.128Z,6.70
2023-01-02T16:31:14.291Z,7.90
2023-01-02T16:33:42.180Z,3.13
2023-01-02T16:36:29.626Z,5.27
2023-01-02T16:38:59.467Z,30.10
2023-01-02T16:41:38.092Z,27.23
2023-01-02T16:44:12.857Z,17.37
2023-01-02T16:46:44.210Z,16.33
2023-01-02T16:49:16.542Z,10.10
2023-01-02T16:51:45.196Z,3.57
2023-01-02T16:54:13.550Z,9.57
2023-01-02T16:56:40.451Z,16.27
2023-01-02T16:59:07.519Z,24.03
2023-01-02T17:01:34.404Z,9.40
2023-01-02T17:04:01.299Z,6.03
2023-01-02T17:06:28.043Z,9.60
2023-01-02T17:08:54.840Z,16.50
2023-01-02T17:11:24.532Z,13.57
2023-01-02T17:13:52.154Z,7.00
2023-01-02T17:16:19.991Z,13.93
2023-01-02T17:18:46.863Z,17.57
2023-01-02T17:21:13.596Z,23.07
2023-01-02T17:23:40.283Z,21.30
2023-01-02T17:26:06.932Z,12.63
2023-01-02T17:28:33.647Z,12.37
2023-01-02T17:31:00.471Z,24.27
2023-01-02T17:33:27.286Z,20.27
2023-01-02T17:35:53.889Z,23.13
2023-01-02T17:38:20.581Z,23.23
2023-01-02T17:40:47.574Z,22.63
2023-01-02T17:43:14.410Z,23.53
2023-01-02T17:45:42.778Z,18.53
2023-01-02T17:48:12.664Z,13.67
2023-01-02T17:50:40.933Z,5.93
2023-01-02T17:53:08.541Z,4.93
2023-01-02T17:55:35.529Z,3.17
2023-01-02T17:58:03.557Z,2.70
2023-01-02T18:00:30.300Z,4.83
2023-01-02T18:02:57.025Z,3.57
2023-01-02T18:05:24.378Z,11.40
2023-01-02T18:07:51.073Z,7.63
2023-01-02T18:10:20.546Z,5.57
2023-01-02T18:12:49.296Z,5.83
2023-01-02T18:15:18.108Z,4.70
2023-01-02T18:17:45.016Z,6.13
2023-01-02T18:20:17.366Z,6.57
2023-01-02T18:22:49.620Z,3.73
2023-01-02T18:25:24.514Z,4.53
2023-01-02T18:28:00.182Z,4.57
2023-01-02T18:30:27.723Z,4.87
2023-01-02T18:33:11.028Z,3.57
2023-01-02T18:38:32.563Z,8.97
2023-01-02T18:40:59.431Z,6.37
2023-01-02T18:43:35.498Z,19.60
2023-01-02T18:46:13.720Z,6.63
2023-01-02T18:48:41.006Z,8.87
2023-01-02T18:51:21.183Z,5.00
2023-01-02T18:53:56.922Z,10.53
2023-01-02T18:56:27.292Z,6.63
2023-01-02T18:59:18.926Z,7.00
2023-01-02T19:01:50.946Z,5.63
2023-01-02T19:04:28.183Z,5.93
2023-01-02T19:07:00.102Z,5.90
2023-01-02T19:09:35.454Z,3.93
2023-01-02T19:12:41.816Z,4.17
2023-01-02T19:15:39.850Z,3.80
2023-01-02T19:18:19.711Z,4.17
2023-01-02T19:21:02.215Z,2.30
2023-01-02T19:23:32.459Z,3.30
2023-01-02T19:26:21.301Z,2.30
2023-01-02T19:28:54.065Z,2.50
2023-01-02T19:31:21.760Z,2.13
2023-01-02T19:33:52.791Z,2.43
2023-01-02T19:36:24.966Z,2.73
2023-01-02T19:38:52.196Z,2.43
2023-01-02T19:41:39.088Z,2.57
2023-01-02T19:44:05.883Z,2.30
2023-01-02T19:46:32.605Z,3.40
2023-01-02T19:48:59.395Z,2.43
2023-01-02T19:51:32.209Z,3.43
2023-01-02T19:54:03.968Z,16.97
2023-01-02T19:56:31.861Z,5.77
2023-01-02T19:58:58.475Z,3.27
2023-01-02T20:01:25.303Z,5.10
2023-01-02T20:03:52.104Z,17.77
2023-01-02T20:06:18.905Z,6.57
2023-01-02T20:08:47.212Z,6.90
2023-01-02T20:11:33.912Z,5.20
2023-01-02T20:14:00.527Z,6.50
2023-01-02T20:16:27.263Z,5.17
2023-01-02T20:18:54.044Z,7.87
2023-01-02T20:21:22.033Z,4.83
2023-01-02T20:23:56.020Z,9.80
2023-01-02T20:26:23.249Z,5.07
2023-01-02T20:28:49.909Z,4.77
2023-01-02T20:31:17.310Z,7.87
2023-01-02T20:33:43.955Z,9.77
2023-01-02T20:36:13.981Z,6.63
2023-01-02T20:38:40.784Z,6.63
2023-01-02T20:41:07.542Z,6.30
2023-01-02T20:43:34.254Z,4.83
2023-01-02T20:46:01.079Z,3.77
2023-01-02T20:48:27.940Z,3.33
2023-01-02T20:50:55.189Z,3.70
2023-01-02T20:53:21.981Z,5.10
2023-01-02T20:55:50.845Z,2.60
2023-01-02T20:58:17.569Z,2.20
2023-01-02T21:00:44.989Z,8.97
2023-01-02T21:03:11.928Z,8.30
2023-01-02T21:05:42.083Z,10.53
2023-01-02T21:08:10.697Z,5.97
2023-01-02T21:10:37.508Z,6.67
2023-01-02T21:13:07.501Z,8.07
2023-01-02T21:15:53.581Z,3.80
2023-01-02T21:18:40.000Z,3.33
2023-01-02T21:21:15.334Z,4.37
2023-01-02T21:23:42.119Z,5.37
2023-01-02T21:26:14.330Z,5.43
2023-01-02T21:28:43.993Z,3.03
2023-01-02T21:31:11.786Z,8.70
2023-01-02T21:33:38.741Z,9.67
2023-01-02T21:36:08.612Z,3.53
2023-01-02T21:38:36.190Z,12.17
2023-01-02T21:41:21.297Z,7.33
2023-01-02T21:43:48.824Z,15.87
2023-01-02T21:46:16.311Z,4.77
2023-01-02T21:48:43.143Z,5.70
2023-01-02T21:51:09.893Z,2.90
2023-01-02T21:53:36.543Z,4.67
2023-01-02T21:56:03.541Z,4.43
2023-01-02T21:58:30.455Z,3.83
2023-01-02T22:00:57.288Z,6.47
2023-01-02T22:03:24.163Z,3.13
2023-01-02T22:05:50.934Z,2.63
2023-01-02T22:08:17.651Z,3.00
2023-01-02T22:10:44.231Z,3.97
2023-01-02T22:13:10.925Z,4.20
2023-01-02T22:15:37.572Z,4.77
2023-01-02T22:18:04.460Z,3.60
2023-01-02T22:20:32.296Z,8.37
2023-01-02T22:22:59.047Z,4.33
2023-01-02T22:25:25.785Z,5.60
2023-01-02T22:27:52.512Z,3.33
2023-01-02T22:30:24.353Z,2.37
2023-01-02T22:32:54.724Z,3.87
2023-01-02T22:35:21.670Z,5.33
2023-01-02T22:37:48.474Z,9.13
2023-01-02T22:40:15.224Z,3.57
2023-01-02T22:43:02.097Z,4.63
2023-01-02T22:45:35.463Z,3.50
2023-01-02T22:48:05.914Z,3.30
2023-01-02T22:50:41.530Z,2.67
2023-01-02T22:53:31.919Z,2.20
2023-01-02T22:56:00.649Z,2.83
2023-01-02T22:58:27.702Z,2.30
2023-01-02T23:01:10.222Z,2.00
2023-01-02T23:03:41.982Z,2.67
2023-01-02T23:06:08.916Z,4.03
2023-01-02T23:08:36.254Z,5.00
2023-01-02T23:11:04.093Z,4.17
2023-01-02T23:13:33.109Z,3.43
2023-01-02T23:16:18.550Z,3.43
2023-01-02T23:19:04.148Z,3.00
2023-01-02T23:21:32.735Z,8.93
2023-01-02T23:23:59.605Z,24.07
2023-01-02T23:26:34.544Z,22.23
2023-01-02T23:29:09.136Z,28.30
2023-01-02T23:31:39.034Z,9.50
2023-01-02T23:34:06.576Z,5.27
2023-01-02T23:36:34.100Z,2.80
2023-01-02T23:39:00.800Z,7.00
2023-01-02T23:41:27.605Z,12.03
2023-01-02T23:43:54.353Z,9.87
2023-01-02T23:46:21.038Z,7.10
2023-01-02T23:48:48.395Z,9.30
2023-01-02T23:51:15.254Z,13.43
2023-01-02T23:53:41.889Z,6.20
2023-01-02T23:56:23.003Z,11.10
2023-01-02T23:58:54.298Z,4.83
